createdAt,value
2018-08-03T00:01:00.533Z,90.35
2018-08-03T00:04:04.853Z,90.86
2018-08-03T00:07:09.248Z,90.54
2018-08-03T00:10:13.567Z,90.66
2018-08-03T00:13:17.981Z,89.93
2018-08-03T00:16:22.274Z,89.37
2018-08-03T00:19:27.761Z,89.75
2018-08-03T00:22:32.082Z,89.83
2018-08-03T00:25:36.394Z,90.98
2018-08-03T00:28:40.703Z,91.56
2018-08-03T00:31:45.037Z,91.27
2018-08-03T00:34:49.321Z,91.71
2018-08-03T00:37:53.659Z,91.33
2018-08-03T00:40:57.926Z,91.07
2018-08-03T00:44:02.193Z,89.11
2018-08-03T00:47:06.497Z,88.91
2018-08-03T00:50:10.825Z,88.71
2018-08-03T00:53:15.171Z,89.10
2018-08-03T00:56:19.479Z,89.52
2018-08-03T00:59:23.604Z,89.93
2018-08-03T01:02:27.908Z,89.37
2018-08-03T01:05:32.186Z,88.66
2018-08-03T01:08:36.547Z,89.08
2018-08-03T01:11:40.768Z,88.96
2018-08-03T01:14:45.046Z,87.91
2018-08-03T01:17:49.411Z,87.92
2018-08-03T01:20:53.556Z,88.09
2018-08-03T01:23:57.962Z,88.63
2018-08-03T01:27:02.253Z,88.87
2018-08-03T01:30:07.371Z,88.88
2018-08-03T01:33:11.737Z,88.64
2018-08-03T01:36:16.002Z,88.41
2018-08-03T01:39:20.361Z,89.15
2018-08-03T01:42:24.633Z,88.97
2018-08-03T01:45:28.905Z,89.53
2018-08-03T01:48:33.209Z,89.17
2018-08-03T01:51:37.497Z,89.41
2018-08-03T01:54:41.778Z,89.01
2018-08-03T01:57:46.076Z,89.66
2018-08-03T02:00:50.398Z,89.57
2018-08-03T02:03:54.823Z,90.23
2018-08-03T02:06:59.159Z,89.79
2018-08-03T02:10:03.458Z,90.54
2018-08-03T02:13:07.972Z,90.34
2018-08-03T02:16:12.321Z,90.36
2018-08-03T02:19:16.662Z,89.62
2018-08-03T02:22:20.977Z,89.57
2018-08-03T02:25:25.230Z,89.69
2018-08-03T02:28:29.489Z,89.47
2018-08-03T02:31:33.563Z,89.86
2018-08-03T02:34:37.812Z,89.90
2018-08-03T02:37:42.171Z,90.88
2018-08-03T02:40:46.556Z,91.61
2018-08-03T02:43:50.894Z,92.58
2018-08-03T02:46:55.316Z,92.87
2018-08-03T02:49:59.735Z,93.47
2018-08-03T02:53:04.057Z,94.71
2018-08-03T02:56:08.378Z,95.12
2018-08-03T02:59:12.708Z,94.92
2018-08-03T03:02:17.012Z,94.74
2018-08-03T03:05:21.338Z,95.16
2018-08-03T03:08:25.667Z,95.24
2018-08-03T03:11:29.929Z,96.60
2018-08-03T03:14:34.165Z,95.98
2018-08-03T03:17:38.555Z,96.07
2018-08-03T03:20:42.810Z,95.60
2018-08-03T03:23:47.188Z,96.12
2018-08-03T03:26:51.448Z,96.08
2018-08-03T03:29:55.677Z,96.42
2018-08-03T03:33:00.040Z,95.59
2018-08-03T03:36:04.368Z,94.84
2018-08-03T03:39:12.251Z,95.59
2018-08-03T03:42:16.581Z,95.02
2018-08-03T03:45:20.912Z,94.42
2018-08-03T03:48:25.232Z,94.98
2018-08-03T03:51:29.533Z,95.23
2018-08-03T03:54:33.856Z,95.28
2018-08-03T03:57:38.278Z,95.34
2018-08-03T04:00:42.595Z,95.66
2018-08-03T04:03:46.960Z,95.80
2018-08-03T04:06:51.254Z,95.37
2018-08-03T04:09:55.664Z,95.47
2018-08-03T04:13:00.093Z,94.77
2018-08-03T04:16:04.556Z,95.48
2018-08-03T04:19:08.974Z,95.64
2018-08-03T04:22:13.647Z,96.34
2018-08-03T04:25:17.905Z,96.49
2018-08-03T04:28:22.215Z,95.91
2018-08-03T04:31:26.567Z,95.26
2018-08-03T04:34:30.828Z,95.80
2018-08-03T04:37:35.175Z,95.50
2018-08-03T04:40:39.503Z,95.58
2018-08-03T04:43:43.851Z,95.72
2018-08-03T04:46:48.138Z,95.76
2018-08-03T04:49:52.485Z,93.01
2018-08-03T04:52:56.803Z,91.77
2018-08-03T04:56:01.544Z,91.27
2018-08-03T04:59:05.860Z,90.97
2018-08-03T05:02:10.579Z,91.34
2018-08-03T05:05:14.918Z,92.06
2018-08-03T05:08:19.251Z,92.63
2018-08-03T05:11:23.541Z,93.35
2018-08-03T05:14:27.888Z,92.94
2018-08-03T05:17:32.177Z,93.50
2018-08-03T05:20:36.534Z,92.97
2018-08-03T05:23:40.850Z,93.61
2018-08-03T05:26:45.158Z,92.73
2018-08-03T05:29:49.458Z,92.40
2018-08-03T05:32:53.880Z,91.89
2018-08-03T05:35:58.240Z,91.70
2018-08-03T05:39:02.913Z,89.54
2018-08-03T05:42:07.252Z,88.99
2018-08-03T05:45:11.584Z,88.27
2018-08-03T05:48:15.739Z,86.58
2018-08-03T05:51:19.979Z,86.79
2018-08-03T05:54:24.223Z,85.89
2018-08-03T05:57:28.560Z,86.39
2018-08-03T06:00:32.979Z,84.94
2018-08-03T06:03:37.221Z,82.63
2018-08-03T06:06:41.509Z,81.93
2018-08-03T06:09:45.808Z,82.07
2018-08-03T06:12:52.097Z,81.20
2018-08-03T06:15:56.419Z,79.61
2018-08-03T06:19:00.739Z,79.20
2018-08-03T06:22:05.089Z,77.16
2018-08-03T06:25:10.037Z,76.96
2018-08-03T06:28:14.319Z,77.47
2018-08-03T06:31:18.646Z,77.34
2018-08-03T06:34:23.049Z,75.42
2018-08-03T06:37:27.397Z,75.04
2018-08-03T06:40:31.686Z,72.90
2018-08-03T06:43:35.740Z,71.15
2018-08-03T06:46:40.222Z,71.69
2018-08-03T06:49:44.548Z,71.67
2018-08-03T06:52:48.855Z,71.53
2018-08-03T06:55:53.201Z,71.70
2018-08-03T06:58:57.601Z,70.62
2018-08-03T07:02:01.922Z,69.43
2018-08-03T07:05:06.302Z,69.08
2018-08-03T07:08:10.628Z,68.76
2018-08-03T07:11:14.863Z,67.01
2018-08-03T07:14:19.238Z,66.86
2018-08-03T07:17:30.026Z,65.08
2018-08-03T07:20:34.349Z,62.83
2018-08-03T07:23:38.728Z,62.67
2018-08-03T07:26:43.068Z,60.85
2018-08-03T07:29:47.306Z,60.50
2018-08-03T07:32:51.655Z,60.25
2018-08-03T07:35:56.003Z,60.38
2018-08-03T07:39:00.333Z,60.72
2018-08-03T07:42:04.616Z,60.67
2018-08-03T07:45:08.926Z,60.73
2018-08-03T07:48:13.254Z,60.39
2018-08-03T07:51:17.589Z,60.56
2018-08-03T07:54:21.881Z,59.32
2018-08-03T07:57:26.244Z,59.42
2018-08-03T08:00:30.702Z,59.09
2018-08-03T08:03:34.968Z,58.52
2018-08-03T08:06:39.400Z,58.53
2018-08-03T08:09:43.788Z,62.26
2018-08-03T08:12:50.154Z,62.43
2018-08-03T08:15:54.527Z,62.51
2018-08-03T08:18:58.948Z,61.36
2018-08-03T08:22:03.340Z,60.76
2018-08-03T08:25:07.956Z,60.75
2018-08-03T08:28:12.383Z,59.92
2018-08-03T08:31:16.672Z,60.02
2018-08-03T08:34:21.054Z,59.33
2018-08-03T08:37:25.499Z,60.02
2018-08-03T08:40:29.995Z,59.07
2018-08-03T08:43:34.351Z,57.79
2018-08-03T08:46:38.633Z,57.25
2018-08-03T08:49:42.913Z,56.21
2018-08-03T08:52:47.234Z,55.11
2018-08-03T08:55:51.552Z,54.54
2018-08-03T08:58:55.817Z,55.31
2018-08-03T09:02:00.715Z,54.25
2018-08-03T09:05:05.297Z,54.86
2018-08-03T09:08:09.691Z,54.09
2018-08-03T09:11:13.958Z,53.21
2018-08-03T09:14:18.562Z,51.67
2018-08-03T09:17:22.975Z,50.87
2018-08-03T09:20:27.314Z,50.71
2018-08-03T09:23:31.698Z,51.10
2018-08-03T09:26:36.472Z,49.47
2018-08-03T09:29:40.821Z,49.91
2018-08-03T09:32:45.236Z,49.19
2018-08-03T09:35:49.710Z,50.70
2018-08-03T09:38:54.111Z,50.25
2018-08-03T09:41:58.365Z,49.82
2018-08-03T09:45:02.749Z,49.85
2018-08-03T09:48:07.080Z,49.34
2018-08-03T09:51:11.396Z,48.62
2018-08-03T09:54:15.654Z,48.48
2018-08-03T09:57:19.923Z,47.44
2018-08-03T10:00:29.428Z,48.68
2018-08-03T10:03:33.735Z,48.31
2018-08-03T10:06:38.109Z,47.55
2018-08-03T10:09:42.372Z,46.82
2018-08-03T10:12:46.681Z,47.62
2018-08-03T10:15:50.922Z,46.74
2018-08-03T10:18:55.237Z,46.38
2018-08-03T10:21:59.583Z,46.75
2018-08-03T10:25:03.924Z,46.69
2018-08-03T10:28:08.180Z,46.59
2018-08-03T10:31:12.710Z,46.16
2018-08-03T10:34:17.046Z,46.79
2018-08-03T10:37:21.406Z,45.92
2018-08-03T10:40:25.800Z,44.62
2018-08-03T10:43:30.169Z,45.22
2018-08-03T10:46:34.577Z,44.76
2018-08-03T10:49:38.985Z,44.07
2018-08-03T10:52:43.341Z,45.35
2018-08-03T10:55:47.626Z,45.17
2018-08-03T10:58:52.397Z,44.30
2018-08-03T11:01:56.782Z,43.58
2018-08-03T11:05:01.077Z,44.38
2018-08-03T11:08:05.393Z,43.88
2018-08-03T11:11:09.698Z,43.47
2018-08-03T11:14:14.035Z,43.35
2018-08-03T11:17:18.464Z,43.57
2018-08-03T11:20:22.760Z,43.08
2018-08-03T11:23:27.086Z,43.09
2018-08-03T11:26:31.501Z,42.35
2018-08-03T11:29:35.878Z,42.32
2018-08-03T11:32:40.228Z,42.33
2018-08-03T11:35:44.968Z,43.36
2018-08-03T11:38:49.291Z,41.64
2018-08-03T11:41:53.618Z,40.71
2018-08-03T11:44:57.954Z,41.25
2018-08-03T11:48:02.272Z,40.87
2018-08-03T11:51:06.836Z,40.73
2018-08-03T11:54:11.490Z,39.43
2018-08-03T11:57:15.817Z,38.90
2018-08-03T12:00:20.520Z,37.41
2018-08-03T12:03:24.876Z,38.13
2018-08-03T12:06:29.289Z,38.64
2018-08-03T12:09:33.517Z,38.06
2018-08-03T12:12:37.925Z,37.72
2018-08-03T12:15:42.184Z,37.97
2018-08-03T12:18:46.513Z,39.34
2018-08-03T12:21:51.170Z,38.93
2018-08-03T12:24:55.533Z,39.93
2018-08-03T12:27:59.799Z,39.36
2018-08-03T12:31:04.192Z,38.59
2018-08-03T12:34:08.614Z,40.42
2018-08-03T12:37:12.941Z,40.03
2018-08-03T12:40:17.341Z,39.01
2018-08-03T12:43:21.733Z,38.49
2018-08-03T12:46:25.979Z,39.29
2018-08-03T12:49:31.237Z,39.53
2018-08-03T12:52:35.855Z,40.41
2018-08-03T12:55:40.177Z,39.57
2018-08-03T12:58:44.469Z,40.21
2018-08-03T13:01:48.801Z,39.27
2018-08-03T13:04:53.169Z,39.00
2018-08-03T13:07:57.639Z,40.12
2018-08-03T13:11:01.869Z,39.46
2018-08-03T13:14:06.229Z,38.13
2018-08-03T13:17:10.592Z,37.82
2018-08-03T13:20:14.907Z,37.95
2018-08-03T13:23:19.213Z,36.68
2018-08-03T13:26:23.911Z,36.96
2018-08-03T13:29:28.239Z,36.19
2018-08-03T13:32:32.464Z,36.61
2018-08-03T13:35:36.893Z,36.74
2018-08-03T13:38:41.228Z,35.67
2018-08-03T13:41:45.449Z,35.20
2018-08-03T13:44:49.800Z,36.32
2018-08-03T13:47:54.127Z,34.91
2018-08-03T13:50:58.419Z,35.26
2018-08-03T13:54:02.776Z,35.13
2018-08-03T13:57:07.184Z,34.54
2018-08-03T14:00:13.184Z,34.39
2018-08-03T14:03:17.522Z,35.31
2018-08-03T14:06:21.857Z,35.41
2018-08-03T14:09:26.184Z,35.85
2018-08-03T14:12:31.542Z,33.16
2018-08-03T14:15:36.698Z,33.62
2018-08-03T14:18:40.961Z,34.49
2018-08-03T14:21:45.307Z,34.87
2018-08-03T14:24:49.567Z,34.78
2018-08-03T14:27:53.968Z,35.94
2018-08-03T14:30:58.402Z,35.41
2018-08-03T14:34:02.839Z,35.33
2018-08-03T14:37:07.227Z,36.54
2018-08-03T14:40:11.549Z,35.81
2018-08-03T14:43:15.859Z,36.05
2018-08-03T14:46:20.158Z,35.93
2018-08-03T14:49:24.859Z,35.65
2018-08-03T14:52:29.212Z,37.24
2018-08-03T14:55:33.570Z,36.76
2018-08-03T14:58:37.905Z,37.36
2018-08-03T15:01:42.201Z,37.27
2018-08-03T15:04:46.505Z,36.33
2018-08-03T15:07:50.863Z,38.15
2018-08-03T15:10:55.260Z,37.74
2018-08-03T15:13:59.671Z,36.93
2018-08-03T15:17:03.980Z,37.27
2018-08-03T15:20:09.422Z,37.77
2018-08-03T15:23:13.763Z,39.04
2018-08-03T15:26:18.025Z,38.54
2018-08-03T15:29:22.381Z,37.94
2018-08-03T15:32:26.708Z,36.82
2018-08-03T15:35:31.152Z,37.63
2018-08-03T15:38:35.471Z,37.08
2018-08-03T15:41:40.638Z,37.53
2018-08-03T15:44:44.905Z,36.00
2018-08-03T15:47:49.251Z,37.06
2018-08-03T15:50:53.564Z,35.63
2018-08-03T15:53:57.893Z,36.19
2018-08-03T15:57:02.196Z,35.47
2018-08-03T16:00:08.473Z,37.43
2018-08-03T16:03:12.687Z,37.76
2018-08-03T16:06:16.994Z,36.75
2018-08-03T16:09:21.300Z,36.73
2018-08-03T16:12:25.635Z,36.27
2018-08-03T16:15:30.289Z,36.25
2018-08-03T16:18:34.598Z,36.82
2018-08-03T16:21:38.912Z,36.21
2018-08-03T16:24:43.254Z,36.67
2018-08-03T16:27:47.521Z,35.23
2018-08-03T16:30:51.856Z,35.76
2018-08-03T16:33:56.327Z,35.87
2018-08-03T16:37:00.703Z,35.49
2018-08-03T16:40:05.280Z,34.90
2018-08-03T16:43:09.574Z,35.13
2018-08-03T16:46:13.970Z,34.47
2018-08-03T16:49:18.224Z,34.65
2018-08-03T16:52:22.597Z,35.42
2018-08-03T16:55:26.960Z,34.39
2018-08-03T16:58:31.272Z,33.81
2018-08-03T17:01:35.576Z,35.65
2018-08-03T17:04:39.900Z,36.07
2018-08-03T17:07:44.414Z,35.48
2018-08-03T17:10:48.677Z,35.56
2018-08-03T17:13:53.064Z,36.35
2018-08-03T17:16:57.328Z,37.17
2018-08-03T17:20:01.605Z,37.02
2018-08-03T17:23:05.955Z,36.99
2018-08-03T17:26:10.306Z,41.04
2018-08-03T17:29:14.355Z,42.77
2018-08-03T17:32:18.710Z,44.42
2018-08-03T17:35:29.766Z,45.25
2018-08-03T17:38:34.200Z,47.21
2018-08-03T17:41:38.774Z,49.45
2018-08-03T17:44:44.370Z,49.38
2018-08-03T17:47:50.035Z,50.46
2018-08-03T17:50:55.510Z,51.42
2018-08-03T17:54:00.977Z,51.83
2018-08-03T17:57:06.311Z,53.17
2018-08-03T18:00:11.096Z,53.16
2018-08-03T18:03:15.526Z,54.43
2018-08-03T18:06:20.179Z,54.19
2018-08-03T18:09:25.653Z,54.78
2018-08-03T18:12:30.183Z,54.89
2018-08-03T18:15:34.512Z,55.93
2018-08-03T18:18:38.970Z,55.42
2018-08-03T18:21:43.383Z,54.57
2018-08-03T18:24:47.814Z,55.38
2018-08-03T18:27:52.108Z,57.27
2018-08-03T18:31:03.292Z,57.87
2018-08-03T18:34:07.701Z,58.46
2018-08-03T18:37:12.014Z,58.07
2018-08-03T18:40:16.366Z,58.56
2018-08-03T18:43:21.047Z,59.87
2018-08-03T18:46:25.390Z,60.39
2018-08-03T18:49:29.752Z,60.79
2018-08-03T18:52:34.096Z,61.95
2018-08-03T18:55:38.434Z,61.88
2018-08-03T18:58:42.752Z,61.46
2018-08-03T19:01:47.187Z,61.44
2018-08-03T19:04:51.514Z,61.34
2018-08-03T19:07:55.941Z,62.04
2018-08-03T19:11:00.208Z,61.82
2018-08-03T19:14:04.504Z,62.68
2018-08-03T19:17:08.865Z,63.30
2018-08-03T19:20:13.133Z,64.04
2018-08-03T19:23:17.549Z,64.15
2018-08-03T19:26:21.953Z,65.72
2018-08-03T19:29:26.370Z,65.94
2018-08-03T19:32:30.677Z,65.81
2018-08-03T19:35:35.020Z,66.71
2018-08-03T19:38:39.444Z,67.85
2018-08-03T19:41:43.884Z,68.49
2018-08-03T19:44:48.266Z,69.31
2018-08-03T19:47:52.605Z,69.83
2018-08-03T19:50:56.929Z,70.51
2018-08-03T19:54:01.371Z,71.33
2018-08-03T19:57:05.790Z,72.41
2018-08-03T20:00:12.376Z,72.77
2018-08-03T20:03:16.869Z,73.34
2018-08-03T20:06:21.601Z,75.32
2018-08-03T20:09:26.045Z,76.80
2018-08-03T20:12:30.429Z,77.49
2018-08-03T20:15:34.965Z,77.56
2018-08-03T20:18:39.514Z,77.95
2018-08-03T20:21:44.013Z,77.70
2018-08-03T20:24:48.346Z,78.52
2018-08-03T20:27:53.393Z,78.45
2018-08-03T20:30:57.788Z,79.10
2018-08-03T20:34:02.113Z,79.54
2018-08-03T20:37:06.684Z,80.23
2018-08-03T20:40:11.489Z,81.57
2018-08-03T20:43:15.883Z,81.78
2018-08-03T20:46:20.229Z,81.40
2018-08-03T20:49:24.911Z,81.62
2018-08-03T20:52:29.255Z,82.83
2018-08-03T20:55:33.677Z,83.45
2018-08-03T20:58:37.989Z,83.30
2018-08-03T21:01:42.432Z,84.18
2018-08-03T21:04:46.775Z,84.13
2018-08-03T21:07:51.280Z,84.90
2018-08-03T21:10:56.617Z,85.66
2018-08-03T21:14:00.896Z,85.44
2018-08-03T21:17:05.083Z,85.44
2018-08-03T21:20:09.926Z,86.21
2018-08-03T21:23:14.293Z,86.46
2018-08-03T21:26:18.730Z,86.28
2018-08-03T21:29:23.241Z,87.23
2018-08-03T21:32:27.699Z,86.80
2018-08-03T21:35:32.062Z,87.43
2018-08-03T21:38:36.403Z,87.92
2018-08-03T21:41:40.663Z,88.20
2018-08-03T21:44:44.998Z,88.48
2018-08-03T21:47:49.316Z,88.57
2018-08-03T21:50:53.849Z,89.51
2018-08-03T21:53:58.101Z,89.16
2018-08-03T21:57:02.508Z,90.17
2018-08-03T22:00:12.250Z,90.09
2018-08-03T22:03:16.521Z,90.21
2018-08-03T22:06:20.822Z,89.51
2018-08-03T22:09:25.124Z,89.92
2018-08-03T22:12:29.365Z,90.10
2018-08-03T22:15:33.643Z,90.49
2018-08-03T22:18:37.906Z,90.26
2018-08-03T22:21:42.183Z,90.01
2018-08-03T22:24:46.587Z,90.29
2018-08-03T22:27:50.900Z,89.81
2018-08-03T22:30:55.362Z,89.49
2018-08-03T22:33:59.631Z,89.32
2018-08-03T22:37:03.946Z,88.57
2018-08-03T22:40:08.359Z,88.77
2018-08-03T22:43:12.741Z,89.22
2018-08-03T22:46:17.065Z,89.90
2018-08-03T22:49:21.381Z,89.72
2018-08-03T22:52:25.718Z,89.98
2018-08-03T22:55:29.967Z,90.52
2018-08-03T22:58:34.462Z,90.36
2018-08-03T23:01:38.727Z,91.03
2018-08-03T23:04:43.010Z,90.96
2018-08-03T23:07:47.385Z,90.92
2018-08-03T23:10:51.692Z,91.39
2018-08-03T23:13:56.058Z,91.72
2018-08-03T23:17:00.368Z,91.60
2018-08-03T23:20:05.068Z,91.28
2018-08-03T23:23:09.207Z,92.13
2018-08-03T23:26:13.592Z,91.83
2018-08-03T23:29:17.917Z,91.17
2018-08-03T23:32:22.076Z,91.36
2018-08-03T23:35:26.464Z,91.04
2018-08-03T23:38:30.473Z,90.65
2018-08-03T23:41:34.812Z,91.28
2018-08-03T23:44:39.223Z,90.43
2018-08-03T23:47:43.537Z,90.69
2018-08-03T23:50:47.827Z,90.49
2018-08-03T23:53:52.160Z,89.54
2018-08-03T23:56:56.494Z,90.17
